Time;durP1;ratioP1;P1;durP2;ratioP2;P2;SDS_P1;SDS_P2;PMS_P1;PMS_P2;Temp;Humidity;BMP_temperature;BMP_pressure;BME280_temperature;BME280_humidity;BME280_pressure;Samples;Min_cycle;Max_cycle;Signal;HPM_P1;HPM_P2
2021/06/16 00:00:08;;;;;;;10.93;5.85;;;18.10;99.90;;;17.62;73.09;97555.03;5033881;28;20055;-69
2021/06/16 00:02:56;;;;;;;12.88;6.28;;;18.10;99.90;;;17.78;72.10;97550.38;5028401;28;20036;-69
2021/06/16 00:05:44;;;;;;;10.40;4.85;;;18.10;99.90;;;17.81;71.62;97554.56;5023022;28;20501;-69
2021/06/16 00:08:31;;;;;;;10.88;5.15;;;18.10;99.90;;;17.72;71.97;97556.91;5035864;28;20604;-69
2021/06/16 00:11:18;;;;;;;8.60;5.05;;;18.10;99.90;;;17.69;71.46;97551.84;5040525;28;20106;-69
2021/06/16 00:14:06;;;;;;;7.43;4.68;;;18.10;99.90;;;17.65;71.40;97554.81;5042981;28;20098;-69
2021/06/16 00:16:53;;;;;;;8.80;5.18;;;18.10;99.90;;;17.72;71.51;97556.91;5043880;28;20105;-68
2021/06/16 00:19:40;;;;;;;8.07;5.25;;;18.10;99.90;;;17.76;71.17;97552.25;5040556;28;20417;-69
2021/06/16 00:22:27;;;;;;;7.70;5.10;;;18.00;99.90;;;17.66;71.58;97552.09;5039888;28;20096;-68
2021/06/16 00:25:16;;;;;;;6.43;4.47;;;18.00;99.90;;;17.68;70.99;97552.81;5041096;28;20552;-69
2021/06/16 00:28:03;;;;;;;10.52;5.53;;;18.00;99.90;;;17.58;71.49;97549.16;5042300;28;20179;-68
2021/06/16 00:30:50;;;;;;;12.05;5.57;;;18.00;99.90;;;17.54;72.68;97543.31;5043109;28;20037;-69
2021/06/16 00:33:38;;;;;;;8.77;5.32;;;17.90;99.90;;;17.53;72.36;97540.78;5037342;28;20052;-69
2021/06/16 00:36:26;;;;;;;8.52;6.05;;;17.90;99.90;;;17.43;73.25;97542.41;5044104;28;20047;-69
2021/06/16 00:39:14;;;;;;;9.68;6.72;;;17.90;99.90;;;17.35;74.06;97543.75;5031832;28;20134;-69
2021/06/16 00:42:01;;;;;;;13.85;5.68;;;17.80;99.90;;;17.29;73.37;97538.13;5042756;28;20053;-69
2021/06/16 00:44:49;;;;;;;9.40;5.72;;;17.80;99.90;;;17.27;73.41;97542.66;5049248;28;20090;-69
2021/06/16 00:47:36;;;;;;;9.18;5.97;;;17.70;99.90;;;17.24;73.68;97541.09;5043368;28;20048;-69
2021/06/16 00:50:37;;;;;;;9.30;6.45;;;17.70;99.90;;;17.09;75.08;97536.91;5052034;28;20037;-69
2021/06/16 00:53:25;;;;;;;9.80;5.82;;;17.70;99.90;;;17.20;74.53;97539.63;5043552;28;20127;-69
2021/06/16 00:56:12;;;;;;;13.73;5.70;;;17.60;99.90;;;17.03;74.78;97543.41;5044638;28;20068;-68
2021/06/16 00:58:59;;;;;;;10.13;6.63;;;17.60;99.90;;;17.15;74.51;97546.94;5045557;28;20055;-69
2021/06/16 01:01:48;;;;;;;12.23;6.70;;;17.60;99.90;;;17.10;75.71;97539.41;5024576;28;20073;-68
2021/06/16 01:04:36;;;;;;;9.02;6.47;;;17.50;99.90;;;17.03;75.76;97535.53;5030367;28;20103;-69
2021/06/16 01:07:26;;;;;;;11.07;7.10;;;17.50;99.90;;;16.99;75.91;97541.09;5046638;28;20093;-69
2021/06/16 01:10:21;;;;;;;11.80;6.60;;;17.40;99.90;;;16.85;76.63;97542.03;5044073;28;20033;-69
2021/06/16 01:13:19;;;;;;;11.70;7.18;;;17.40;99.90;;;17.08;76.10;97538.69;5045497;28;20148;-69
2021/06/16 01:16:20;;;;;;;15.10;7.65;;;17.40;99.90;;;17.15;76.07;97539.06;5046619;28;20179;-68
2021/06/16 01:19:41;;;;;;;15.43;7.90;;;17.40;99.90;;;17.06;77.03;97535.34;5032882;28;20527;-69
2021/06/16 01:22:42;;;;;;;11.38;7.57;;;17.40;99.90;;;17.06;76.53;97539.72;5038467;28;20064;-69
2021/06/16 01:25:41;;;;;;;11.45;6.82;;;17.50;99.90;;;16.93;75.99;97540.56;5032384;28;20049;-68
2021/06/16 01:28:41;;;;;;;17.23;8.07;;;17.40;99.90;;;16.92;77.47;97545.91;5029575;28;20037;-69
2021/06/16 01:31:31;;;;;;;12.75;7.50;;;17.30;99.90;;;16.97;77.29;97537.75;5038966;28;20162;-69
2021/06/16 01:34:22;;;;;;;12.45;7.15;;;17.40;99.90;;;16.96;77.16;97536.06;5032510;28;20052;-69
2021/06/16 01:37:10;;;;;;;15.98;9.02;;;17.40;99.90;;;16.93;77.72;97543.19;5041970;28;20130;-69
2021/06/16 01:39:58;;;;;;;14.95;8.27;;;17.30;99.90;;;16.97;77.76;97537.75;5043365;28;20037;-68
2021/06/16 01:42:47;;;;;;;11.38;8.73;;;17.30;99.90;;;16.96;78.51;97534.28;5031214;28;20072;-68
2021/06/16 01:45:38;;;;;;;12.98;8.38;;;17.30;99.90;;;16.99;78.19;97528.84;5018240;28;20037;-68
2021/06/16 01:48:26;;;;;;;13.68;9.02;;;17.40;99.90;;;17.09;78.44;97527.25;5029520;28;20094;-69
2021/06/16 01:51:15;;;;;;;19.70;8.75;;;17.40;99.90;;;17.17;78.17;97520.63;5029196;28;20033;-68
2021/06/16 01:54:02;;;;;;;12.40;7.97;;;17.50;99.90;;;17.03;78.06;97518.97;5044261;28;20048;-68
2021/06/16 01:56:52;;;;;;;13.55;8.85;;;17.50;99.90;;;17.09;78.81;97523.78;5046614;28;20186;-69
2021/06/16 01:59:42;;;;;;;13.07;7.78;;;17.50;99.90;;;17.15;77.79;97515.47;5043638;28;20126;-70
2021/06/16 02:02:30;;;;;;;16.80;8.63;;;17.50;99.90;;;17.07;78.47;97515.19;5031453;28;20037;-68
2021/06/16 02:05:20;;;;;;;12.15;8.50;;;17.40;99.90;;;17.18;78.27;97517.06;5047665;28;20045;-69
2021/06/16 02:08:14;;;;;;;15.02;8.60;;;17.50;99.90;;;17.20;78.27;97502.91;5029418;28;20064;-69
2021/06/16 02:11:03;;;;;;;11.52;8.60;;;17.50;99.90;;;17.10;79.07;97501.84;5041644;28;20126;-69
2021/06/16 02:13:55;;;;;;;19.17;9.60;;;17.50;99.90;;;16.96;80.01;97520.34;5032470;28;20041;-68
2021/06/16 02:16:51;;;;;;;17.60;9.60;;;17.40;99.90;;;17.14;79.33;97512.03;5028856;28;20160;-68
2021/06/16 02:19:41;;;;;;;19.33;9.13;;;17.50;99.90;;;17.20;78.67;97513.38;5033530;28;20041;-68
2021/06/16 02:22:29;;;;;;;13.70;9.43;;;17.50;99.90;;;16.89;79.77;97520.75;5028593;28;20103;-68
2021/06/16 02:25:18;;;;;;;15.25;8.95;;;17.40;99.90;;;16.95;79.55;97516.06;5026338;28;20421;-69
2021/06/16 02:28:05;;;;;;;16.50;9.48;;;17.40;99.90;;;17.03;79.81;97511.94;5047382;28;20041;-69
2021/06/16 02:30:53;;;;;;;12.88;8.60;;;17.40;99.90;;;17.04;79.52;97505.75;5041560;28;20536;-67
2021/06/16 02:33:41;;;;;;;15.10;9.63;;;17.40;99.90;;;17.02;79.71;97505.03;5031215;28;20052;-68
2021/06/16 02:36:33;;;;;;;15.20;9.27;;;17.40;99.90;;;17.12;79.87;97503.41;5041459;28;20068;-68
2021/06/16 02:39:33;;;;;;;12.70;8.37;;;17.40;99.90;;;17.11;79.02;97493.88;5025395;28;20099;-68
2021/06/16 02:42:22;;;;;;;14.80;8.70;;;17.50;99.90;;;17.11;78.54;97506.16;5030558;28;20295;-68
2021/06/16 02:45:11;;;;;;;11.70;7.93;;;17.50;99.90;;;17.14;78.80;97493.66;5030662;28;20052;-67
2021/06/16 02:48:00;;;;;;;13.88;8.40;;;17.50;99.90;;;17.03;78.98;97492.75;5030992;28;20080;-68
2021/06/16 02:50:50;;;;;;;14.32;8.35;;;17.50;99.90;;;16.91;79.18;97484.78;5029691;28;20041;-68
2021/06/16 02:53:41;;;;;;;13.00;9.35;;;17.40;99.90;;;16.82;80.51;97488.06;5026353;28;20073;-67
2021/06/16 02:56:29;;;;;;;12.10;10.05;;;17.30;99.90;;;16.79;80.95;97497.91;5028581;28;20111;-68
2021/06/16 02:59:20;;;;;;;13.13;9.30;;;17.20;99.90;;;16.90;80.15;97496.22;5044028;28;20048;-68
2021/06/16 03:02:08;;;;;;;13.90;9.68;;;17.20;99.90;;;16.93;80.50;97492.56;5023792;28;20178;-67
2021/06/16 03:04:57;;;;;;;11.70;8.63;;;17.30;99.90;;;16.95;79.69;97497.69;5025251;28;20111;-68
2021/06/16 03:07:45;;;;;;;13.10;9.32;;;17.30;99.90;;;16.96;80.71;97486.25;5030333;28;20086;-67
2021/06/16 03:10:35;;;;;;;15.02;9.93;;;17.30;99.90;;;16.87;80.62;97485.94;5029997;28;20490;-68
2021/06/16 03:13:28;;;;;;;13.70;9.48;;;17.20;99.90;;;16.84;80.30;97482.72;5032092;28;20033;-68
2021/06/16 03:16:17;;;;;;;16.92;10.27;;;17.30;99.90;;;16.78;81.61;97488.34;5028899;28;20067;-68
2021/06/16 03:19:06;;;;;;;14.50;10.20;;;17.20;99.90;;;16.75;81.41;97486.78;5011136;28;20057;-68
2021/06/16 03:21:55;;;;;;;15.07;10.20;;;17.20;99.90;;;16.83;80.92;97483.63;5032294;28;20099;-68
2021/06/16 03:24:45;;;;;;;15.13;9.70;;;17.20;99.90;;;16.77;81.09;97486.69;5045892;28;20048;-68
2021/06/16 03:27:33;;;;;;;15.90;11.77;;;17.20;99.90;;;16.81;81.96;97493.38;5027847;28;20547;-68
2021/06/16 03:30:24;;;;;;;17.33;11.50;;;17.20;99.90;;;16.80;82.01;97492.56;5040882;28;20061;-68
2021/06/16 03:33:13;;;;;;;21.35;11.35;;;17.20;99.90;;;16.70;82.03;97481.00;5026542;28;20353;-67
2021/06/16 03:36:00;;;;;;;13.13;10.07;;;17.20;99.90;;;16.78;81.49;97485.72;5038403;28;20409;-68
2021/06/16 03:38:50;;;;;;;15.60;11.15;;;17.20;99.90;;;16.76;81.96;97483.19;5031566;28;20041;-67
2021/06/16 03:41:39;;;;;;;13.93;10.30;;;17.20;99.90;;;16.81;81.56;97483.75;5024546;28;20037;-67
2021/06/16 03:44:27;;;;;;;13.18;10.57;;;17.30;99.90;;;16.97;81.06;97477.44;5044046;28;20052;-68
2021/06/16 03:47:21;;;;;;;13.75;9.48;;;17.30;99.90;;;17.04;80.54;97476.91;5044332;28;20404;-68
2021/06/16 03:50:12;;;;;;;12.23;9.73;;;17.40;99.90;;;16.87;81.11;97483.31;5044611;28;20060;-68
2021/06/16 03:53:01;;;;;;;15.63;10.90;;;17.30;99.90;;;16.92;81.00;97480.38;5030645;28;20040;-69
2021/06/16 03:55:50;;;;;;;14.23;10.73;;;17.30;99.90;;;16.87;81.36;97477.25;5029877;28;20037;-68
2021/06/16 03:58:40;;;;;;;13.15;10.50;;;17.20;99.90;;;16.86;81.75;97472.97;5029239;28;20061;-69
2021/06/16 04:01:28;;;;;;;15.18;11.63;;;17.30;99.90;;;16.82;81.92;97479.34;5043324;28;20470;-69
2021/06/16 04:04:15;;;;;;;18.20;10.48;;;17.30;99.90;;;16.88;81.57;97477.16;5045692;28;20037;-68
2021/06/16 04:07:04;;;;;;;16.00;13.05;;;17.30;99.90;;;16.66;82.56;97477.75;5028200;28;20179;-69
2021/06/16 04:09:57;;;;;;;20.20;11.40;;;17.30;99.90;;;16.68;82.66;97475.88;5045310;28;20409;-69
2021/06/16 04:12:46;;;;;;;14.85;10.02;;;17.30;99.90;;;16.83;82.20;97471.41;5043630;28;20131;-68
2021/06/16 04:15:36;;;;;;;15.75;11.98;;;17.30;99.90;;;16.89;81.90;97472.72;5049186;28;20037;-67
2021/06/16 04:18:24;;;;;;;23.83;10.98;;;17.40;99.90;;;16.98;81.69;97466.00;5049201;28;20045;-68
2021/06/16 04:21:14;;;;;;;14.13;10.50;;;17.50;99.90;;;17.06;81.46;97469.78;5045523;28;20497;-69
2021/06/16 04:24:02;;;;;;;13.32;9.63;;;17.60;99.90;;;17.18;80.80;97464.59;5050295;28;20045;-68
2021/06/16 04:26:49;;;;;;;12.95;10.90;;;17.70;99.90;;;17.26;80.68;97465.72;5040310;28;21551;-68
2021/06/16 04:29:40;;;;;;;15.45;10.10;;;17.70;99.90;;;17.31;80.38;97458.38;5046116;28;20057;-68
2021/06/16 04:32:27;;;;;;;16.35;10.32;;;17.90;99.90;;;17.39;80.03;97457.81;5021739;28;20497;-69
2021/06/16 04:35:16;;;;;;;15.18;10.88;;;17.90;99.90;;;17.38;80.54;97457.91;5049750;28;21284;-68
2021/06/16 04:38:03;;;;;;;18.08;10.73;;;17.90;99.90;;;17.38;80.83;97461.41;5030416;28;20037;-68
2021/06/16 04:40:51;;;;;;;15.57;10.38;;;18.00;99.90;;;17.52;80.22;97452.53;5041977;28;20049;-68
2021/06/16 04:43:38;;;;;;;17.05;10.82;;;18.10;99.90;;;17.54;80.05;97455.88;5049300;28;20578;-67
2021/06/16 04:46:26;;;;;;;14.98;10.45;;;18.20;99.90;;;17.57;80.00;97455.66;5047711;28;20037;-68
2021/06/16 04:49:15;;;;;;;13.95;9.98;;;18.20;99.90;;;17.65;80.02;97452.44;5029695;28;20053;-68
2021/06/16 04:52:02;;;;;;;14.27;10.23;;;18.30;99.90;;;17.68;79.67;97455.69;5045097;28;20044;-68
2021/06/16 04:54:50;;;;;;;17.83;11.00;;;18.30;99.90;;;17.69;80.28;97456.53;5024318;28;20034;-67
2021/06/16 04:57:38;;;;;;;13.88;10.55;;;18.40;99.90;;;17.72;80.44;97461.53;5039222;28;20504;-69
2021/06/16 05:00:25;;;;;;;16.92;10.80;;;18.40;99.90;;;17.85;79.62;97456.28;5029440;28;20048;-68
2021/06/16 05:03:12;;;;;;;13.10;9.93;;;18.50;99.90;;;17.97;79.26;97457.97;5042735;28;20048;-68
2021/06/16 05:05:59;;;;;;;13.90;10.75;;;18.60;99.90;;;18.01;79.14;97456.81;5048363;28;20040;-68
2021/06/16 05:08:47;;;;;;;15.93;9.70;;;18.70;99.90;;;18.20;78.66;97461.53;5026969;28;20041;-68
2021/06/16 05:11:34;;;;;;;14.27;9.30;;;18.80;99.90;;;18.28;78.19;97461.78;5041383;28;20567;-68
2021/06/16 05:14:22;;;;;;;15.18;9.15;;;19.00;99.90;;;18.38;77.81;97459.28;5045403;28;20048;-69
2021/06/16 05:17:10;;;;;;;13.80;10.68;;;19.10;99.90;;;18.51;77.57;97470.53;5037699;28;20540;-69
2021/06/16 05:19:57;;;;;;;14.18;10.05;;;19.30;99.90;;;18.57;76.99;97470.06;5044064;28;20072;-68
2021/06/16 05:22:48;;;;;;;14.25;10.43;;;19.40;99.90;;;18.70;76.56;97462.09;5039618;28;20072;-68
2021/06/16 05:25:35;;;;;;;14.50;9.82;;;19.40;99.90;;;18.73;76.30;97467.09;5046151;28;20602;-69
2021/06/16 05:28:23;;;;;;;12.93;10.32;;;19.50;99.90;;;18.80;76.35;97462.22;5038089;28;20037;-69
2021/06/16 05:31:11;;;;;;;15.90;10.90;;;19.50;99.90;;;18.82;75.85;97457.69;5037084;28;20519;-67
2021/06/16 05:33:59;;;;;;;14.57;8.43;;;19.50;99.90;;;18.92;75.54;97456.00;5037297;28;20528;-65
2021/06/16 05:36:46;;;;;;;10.98;9.35;;;19.70;99.90;;;19.09;75.50;97457.31;5036782;28;20078;-68
2021/06/16 05:39:34;;;;;;;14.43;9.63;;;19.80;99.90;;;19.09;75.32;97456.44;5042045;28;20084;-68
2021/06/16 05:42:22;;;;;;;17.20;9.35;;;19.90;99.90;;;19.15;75.04;97454.19;5032039;28;20041;-68
2021/06/16 05:45:10;;;;;;;11.98;8.73;;;19.90;99.90;;;19.21;74.22;97456.31;5044669;28;20102;-67
2021/06/16 05:47:58;;;;;;;13.88;8.60;;;20.00;99.90;;;19.31;74.20;97459.06;5046663;28;20158;-68
2021/06/16 05:50:45;;;;;;;13.70;8.02;;;20.10;99.90;;;19.35;74.22;97451.75;5040951;28;20107;-67
2021/06/16 05:53:32;;;;;;;10.45;7.85;;;20.30;99.90;;;19.60;73.35;97454.09;5040268;28;20163;-66
2021/06/16 05:56:20;;;;;;;10.40;8.15;;;20.30;99.90;;;19.60;72.80;97454.09;5044745;28;20060;-68
2021/06/16 05:59:07;;;;;;;12.73;8.05;;;20.40;99.90;;;19.73;72.32;97456.59;5044623;28;20059;-67
2021/06/16 06:01:54;;;;;;;12.05;7.25;;;20.40;99.90;;;19.78;72.43;97456.22;5025069;28;20045;-68
2021/06/16 06:04:42;;;;;;;7.82;6.97;;;20.60;99.90;;;19.94;71.67;97458.41;5042703;28;124701;-68
2021/06/16 06:07:29;;;;;;;9.20;7.47;;;20.90;99.90;;;20.34;70.97;97461.19;5045878;28;20033;-68
2021/06/16 06:10:16;;;;;;;9.55;6.53;;;21.10;99.90;;;20.52;70.45;97460.59;5044586;28;20048;-68
2021/06/16 06:13:04;;;;;;;15.20;6.97;;;21.20;99.90;;;20.50;70.05;97454.63;5044232;28;20049;-67
2021/06/16 06:15:51;;;;;;;10.15;6.57;;;21.40;99.90;;;20.46;69.61;97454.88;5018679;28;20040;-68
2021/06/16 06:18:38;;;;;;;9.98;6.38;;;21.50;99.90;;;20.60;69.72;97450.28;5046392;28;20076;-68
2021/06/16 06:21:32;;;;;;;10.68;6.75;;;21.50;99.90;;;20.78;68.72;97450.50;5047714;28;20171;-68
2021/06/16 06:24:20;;;;;;;11.57;7.25;;;21.50;99.90;;;20.61;68.19;97449.28;5044577;28;20562;-65
2021/06/16 06:27:07;;;;;;;9.45;6.80;;;21.50;99.90;;;20.73;68.39;97450.03;5043344;28;20143;-70
2021/06/16 06:29:54;;;;;;;11.73;7.78;;;21.50;99.90;;;20.72;68.13;97445.75;5045695;28;20033;-65
2021/06/16 06:32:42;;;;;;;11.77;6.35;;;21.50;99.90;;;20.66;68.79;97452.38;5042199;28;20531;-67
2021/06/16 06:35:30;;;;;;;11.77;7.60;;;21.60;99.90;;;20.73;68.26;97445.59;5028518;28;20041;-67
2021/06/16 06:38:17;;;;;;;10.68;7.25;;;21.60;99.90;;;20.91;67.94;97437.06;5045702;28;20497;-68
2021/06/16 06:41:05;;;;;;;12.35;6.65;;;21.70;99.90;;;21.13;67.74;97442.16;5046512;28;20048;-70
2021/06/16 06:43:52;;;;;;;12.82;7.25;;;21.80;99.90;;;21.16;67.20;97443.69;5044869;28;20432;-70
2021/06/16 06:46:39;;;;;;;11.75;7.00;;;22.00;99.90;;;21.51;66.67;97433.50;5045771;28;20052;-67
2021/06/16 06:49:26;;;;;;;9.48;6.57;;;22.20;99.90;;;21.36;66.70;97434.00;5037826;28;20034;-68
2021/06/16 06:52:14;;;;;;;8.50;6.93;;;22.30;99.90;;;21.67;66.01;97434.78;5043545;28;20682;-69
2021/06/16 06:55:02;;;;;;;9.38;6.38;;;22.40;99.90;;;21.72;66.00;97438.66;5044386;28;20048;-67
2021/06/16 06:57:49;;;;;;;12.27;6.78;;;22.60;99.90;;;21.84;65.09;97434.06;5042917;28;20932;-66
2021/06/16 07:00:36;;;;;;;11.43;6.72;;;22.80;99.90;;;22.19;65.14;97439.72;5045454;28;20052;-70
2021/06/16 07:03:24;;;;;;;8.32;6.32;;;23.00;99.90;;;22.24;64.10;97427.81;5045411;28;20083;-69
2021/06/16 07:06:11;;;;;;;10.43;5.72;;;23.20;99.90;;;22.54;63.00;97426.75;5045627;28;20040;-68
2021/06/16 07:08:59;;;;;;;9.05;6.30;;;23.30;99.90;;;22.70;62.48;97415.56;5031629;28;20045;-68
2021/06/16 07:11:47;;;;;;;10.18;6.15;;;23.60;99.90;;;23.03;61.34;97412.50;5031763;28;20067;-70
2021/06/16 07:14:37;;;;;;;13.68;6.55;;;23.60;99.90;;;23.00;59.05;97408.34;5045484;28;20060;-70
2021/06/16 07:17:25;;;;;;;9.30;5.03;;;23.70;99.90;;;23.47;59.65;97413.50;5037212;28;20048;-69
2021/06/16 07:20:16;;;;;;;7.13;5.28;;;24.00;99.90;;;23.67;58.16;97402.72;5049707;28;20502;-68
2021/06/16 07:23:04;;;;;;;9.40;5.38;;;24.30;99.90;;;23.37;59.10;97402.94;5044375;28;20343;-68
2021/06/16 07:25:51;;;;;;;9.52;5.50;;;24.50;99.90;;;23.70;59.50;97405.94;5047788;28;20634;-69
2021/06/16 07:28:38;;;;;;;7.07;5.03;;;24.70;99.90;;;24.19;58.20;97402.84;5031568;28;20128;-69
2021/06/16 07:31:26;;;;;;;9.00;5.50;;;24.90;99.90;;;23.96;56.94;97408.66;5045651;28;20037;-68
2021/06/16 07:34:13;;;;;;;16.60;6.07;;;24.90;99.90;;;24.23;57.27;97408.69;5027641;28;20410;-69
2021/06/16 07:37:01;;;;;;;9.63;5.43;;;24.80;99.90;;;24.23;56.88;97409.50;5034009;28;20052;-68
2021/06/16 07:39:49;;;;;;;7.75;5.35;;;24.90;99.90;;;24.58;55.40;97410.41;5044731;28;20045;-69
2021/06/16 07:42:38;;;;;;;8.63;4.70;;;25.10;99.90;;;25.07;55.64;97409.81;5042848;28;20335;-69
2021/06/16 07:45:26;;;;;;;9.15;5.18;;;25.40;99.90;;;25.08;54.47;97406.16;5047763;28;20045;-69
2021/06/16 07:48:14;;;;;;;10.55;5.53;;;25.60;99.90;;;24.88;54.76;97401.09;5040735;28;20041;-67
2021/06/16 07:51:01;;;;;;;11.07;4.65;;;25.80;99.90;;;25.14;54.91;97400.22;5040190;28;20127;-68
2021/06/16 07:53:48;;;;;;;13.95;4.72;;;25.80;99.90;;;25.02;53.50;97402.31;5036068;28;20033;-66
2021/06/16 07:56:36;;;;;;;9.88;4.82;;;25.80;99.90;;;25.33;54.06;97399.94;5037427;28;20056;-68
2021/06/16 07:59:24;;;;;;;9.63;5.10;;;26.00;99.90;;;25.13;53.63;97404.66;5044519;28;20045;-68
2021/06/16 08:02:11;;;;;;;8.00;5.03;;;26.10;99.90;;;25.01;53.54;97404.13;5039752;28;20516;-67
2021/06/16 08:04:59;;;;;;;8.38;5.40;;;26.10;99.90;;;25.50;52.92;97394.66;5046722;28;20040;-68
2021/06/16 08:07:46;;;;;;;7.90;4.63;;;26.10;99.90;;;25.56;52.70;97396.66;5027145;28;20569;-68
2021/06/16 08:10:34;;;;;;;6.60;4.13;;;26.30;99.90;;;25.85;52.17;97391.72;5043010;28;20041;-67
2021/06/16 08:13:21;;;;;;;8.00;5.13;;;26.60;99.90;;;25.84;52.28;97390.06;5035170;28;20513;-68
2021/06/16 08:16:08;;;;;;;6.68;4.25;;;26.60;99.90;;;26.30;52.29;97405.50;5042611;28;20041;-68
2021/06/16 08:18:55;;;;;;;7.95;4.07;;;27.00;99.90;;;26.40;51.17;97395.50;5040099;28;20041;-67
2021/06/16 08:21:43;;;;;;;7.72;3.85;;;27.30;99.90;;;26.35;50.05;97402.34;5027835;28;20048;-67
2021/06/16 08:24:30;;;;;;;10.52;4.57;;;27.40;99.90;;;26.50;48.83;97406.81;5035584;28;20037;-68
2021/06/16 08:27:18;;;;;;;7.10;3.75;;;27.90;99.90;;;27.03;48.18;97406.31;5038521;28;20033;-66
2021/06/16 08:30:07;;;;;;;9.68;4.20;;;28.10;99.90;;;27.56;47.33;97395.91;5042387;28;20419;-67
2021/06/16 08:32:55;;;;;;;17.00;4.15;;;28.50;99.90;;;27.35;46.54;97397.34;5042104;28;20130;-68
2021/06/16 08:35:42;;;;;;;7.90;3.88;;;28.70;99.90;;;27.70;46.50;97400.44;5037130;28;20056;-68
2021/06/16 08:38:29;;;;;;;6.35;3.40;;;29.00;99.90;;;28.38;45.89;97393.38;5043056;28;20041;-68
2021/06/16 08:41:18;;;;;;;6.93;3.95;;;29.40;99.90;;;28.68;43.14;97398.78;5039513;28;20037;-68
2021/06/16 08:44:07;;;;;;;6.25;3.38;;;29.70;99.90;;;28.51;43.44;97390.94;5043233;28;20064;-69
2021/06/16 08:46:56;;;;;;;6.80;3.35;;;29.80;99.90;;;29.02;42.09;97392.03;5022591;28;20085;-68
2021/06/16 08:49:44;;;;;;;6.72;3.95;;;30.10;99.90;;;29.88;42.14;97384.97;5040068;28;20033;-69
2021/06/16 08:52:33;;;;;;;5.40;3.17;;;30.50;99.90;;;29.58;40.52;97387.75;5041457;28;20057;-68
2021/06/16 08:55:21;;;;;;;6.88;3.25;;;30.30;99.90;;;30.28;39.81;97390.66;5025390;28;20055;-68
2021/06/16 08:58:08;;;;;;;6.32;2.95;;;30.80;99.90;;;31.01;38.87;97383.06;5042783;28;20048;-69
2021/06/16 09:00:56;;;;;;;5.00;2.58;;;31.00;99.90;;;31.51;37.05;97380.16;5040910;28;20045;-68
2021/06/16 09:03:43;;;;;;;5.53;2.70;;;31.60;99.50;;;31.51;37.28;97376.66;5042790;28;20041;-69
2021/06/16 09:06:31;;;;;;;7.97;4.05;;;31.80;99.30;;;31.47;38.28;97373.53;5050628;28;20048;-69
2021/06/16 09:09:28;;;;;;;5.00;3.17;;;31.80;99.80;;;32.16;36.51;97376.91;5043383;28;20096;-68
2021/06/16 09:12:29;;;;;;;6.80;3.55;;;31.90;99.50;;;32.05;36.32;97370.34;5048440;28;20119;-68
2021/06/16 09:15:20;;;;;;;4.57;2.35;;;31.90;98.40;;;31.59;34.61;97369.25;5045725;28;20033;-69
2021/06/16 09:18:12;;;;;;;5.53;2.60;;;32.10;98.00;;;32.09;35.40;97377.78;5048882;28;20122;-68
2021/06/16 09:20:59;;;;;;;4.55;3.00;;;32.00;98.00;;;32.37;35.34;97375.88;5045854;28;20045;-68
2021/06/16 09:23:46;;;;;;;4.65;2.67;;;32.20;98.00;;;32.44;34.37;97376.69;5038051;28;20042;-67
2021/06/16 09:26:42;;;;;;;5.30;2.53;;;32.40;97.30;;;32.59;33.89;97373.78;5044434;28;20065;-67
2021/06/16 09:29:30;;;;;;;4.85;2.40;;;32.50;97.00;;;32.84;33.98;97368.53;5046669;28;20069;-67
2021/06/16 09:32:17;;;;;;;4.30;2.50;;;32.90;96.80;;;33.25;32.92;97372.75;5048180;28;20060;-68
2021/06/16 09:35:34;;;;;;;4.50;2.17;;;33.20;95.80;;;33.65;29.98;97367.16;5033188;28;20049;-68
2021/06/16 09:38:30;;;;;;;6.45;2.33;;;33.00;94.30;;;33.03;31.96;97366.84;5027133;28;20041;-69
2021/06/16 09:41:22;;;;;;;6.50;2.75;;;33.10;94.50;;;32.74;32.82;97366.31;5039490;28;20069;-67
2021/06/16 09:44:10;;;;;;;4.50;2.33;;;33.30;94.60;;;32.61;31.94;97372.53;5043700;28;20448;-68
2021/06/16 09:47:13;;;;;;;4.88;2.20;;;33.10;93.50;;;32.76;30.61;97369.63;5034064;28;20072;-68
2021/06/16 09:50:04;;;;;;;6.03;2.53;;;33.20;92.60;;;33.51;30.11;97356.44;5046039;28;20047;-68
2021/06/16 09:52:52;;;;;;;4.53;2.20;;;33.90;92.80;;;33.21;30.72;97364.28;5051074;28;20065;-68
2021/06/16 09:55:40;;;;;;;3.72;1.98;;;33.50;92.70;;;33.47;31.46;97362.47;5038336;28;20318;-68
2021/06/16 09:58:27;;;;;;;5.75;2.40;;;33.60;93.10;;;33.70;30.33;97367.31;5032926;28;20045;-68
2021/06/16 10:01:14;;;;;;;4.18;2.58;;;33.60;92.70;;;32.82;32.34;97359.88;5043092;28;20127;-68
2021/06/16 10:04:05;;;;;;;7.57;2.30;;;33.30;93.00;;;33.52;30.73;97355.41;5034620;28;20033;-67
2021/06/16 10:07:22;;;;;;;3.28;1.98;;;33.60;92.60;;;33.86;30.38;97361.41;5033788;28;20071;-69
2021/06/16 10:10:12;;;;;;;5.00;2.03;;;34.10;92.10;;;34.24;29.83;97351.59;5041501;28;20063;-68
2021/06/16 10:12:59;;;;;;;6.07;2.58;;;34.60;91.40;;;34.73;29.54;97350.66;5034599;28;21487;-67
2021/06/16 10:15:47;;;;;;;4.70;1.60;;;34.90;91.70;;;34.19;27.37;97349.56;5044143;28;20087;-68
2021/06/16 10:18:45;;;;;;;5.40;2.30;;;34.70;89.00;;;34.00;30.41;97351.34;5039409;28;20151;-68
2021/06/16 10:21:32;;;;;;;3.83;2.38;;;34.40;90.90;;;33.33;30.17;97346.41;5040470;28;20157;-68
2021/06/16 10:24:19;;;;;;;5.90;2.28;;;34.10;90.20;;;32.88;32.73;97341.03;5047917;28;20041;-68
2021/06/16 10:27:14;;;;;;;4.25;2.47;;;33.90;91.40;;;32.44;32.30;97339.91;5033042;28;20037;-69
2021/06/16 10:30:12;;;;;;;5.57;2.10;;;33.40;91.20;;;34.09;31.15;97341.13;5032640;28;20052;-69
2021/06/16 10:33:00;;;;;;;4.93;1.40;;;33.80;91.80;;;31.97;28.95;97335.63;5028506;28;20041;-67
2021/06/16 10:35:47;;;;;;;2.65;0.93;;;34.50;85.80;;;33.94;27.37;97344.97;5036024;28;20190;-67
2021/06/16 10:38:35;;;;;;;5.22;1.35;;;34.20;85.90;;;32.22;27.43;97352.75;5044047;28;20425;-69
2021/06/16 10:41:38;;;;;;;4.53;1.15;;;34.10;82.30;;;30.01;30.51;97357.47;5047195;28;20481;-68
2021/06/16 10:44:29;;;;;;;2.22;1.00;;;34.00;80.30;;;31.89;27.29;97353.56;5045669;28;20044;-68
2021/06/16 10:47:16;;;;;;;;;;;33.50;82.60;;;32.49;26.61;97344.66;5033212;28;20523;-68
2021/06/16 10:50:04;;;;;;;2.75;1.10;;;33.30;80.40;;;33.82;27.13;97346.72;5048795;28;20318;-68
2021/06/16 10:53:04;;;;;;;2.20;0.90;;;34.10;82.80;;;31.91;27.44;97336.44;5040067;28;20516;-69
2021/06/16 10:55:54;;;;;;;3.28;1.10;;;33.80;79.00;;;30.30;28.77;97348.47;5036228;28;20367;-68
2021/06/16 10:58:45;;;;;;;2.63;0.95;;;33.80;77.40;;;32.65;27.25;97329.97;5038152;28;20408;-69
2021/06/16 11:01:47;;;;;;;4.70;1.23;;;33.70;79.80;;;32.40;25.87;97337.84;5027991;28;20898;-69
2021/06/16 11:04:37;;;;;;;4.00;1.50;;;33.70;77.00;;;30.81;28.60;97329.38;5025745;28;20576;-68
2021/06/16 11:07:31;;;;;;;4.47;1.03;;;33.80;76.90;;;31.59;28.91;97317.44;5036454;28;20405;-67
2021/06/16 11:10:18;;;;;;;2.70;1.20;;;33.80;79.10;;;30.15;29.76;97319.09;5035023;28;20123;-69
2021/06/16 11:13:05;;;;;;;2.75;1.02;;;33.70;76.70;;;30.87;28.78;97318.91;5038982;28;20056;-69
2021/06/16 11:15:52;;;;;;;2.38;1.10;;;33.20;77.30;;;30.21;29.93;97322.84;5042098;28;20037;-69
2021/06/16 11:18:40;;;;;;;3.97;1.15;;;33.00;76.70;;;29.98;29.33;97318.56;5039649;28;20045;-68
2021/06/16 11:21:27;;;;;;;3.08;1.10;;;33.20;75.50;;;30.99;28.88;97310.06;5024616;28;20500;-68
2021/06/16 11:24:15;;;;;;;2.90;1.23;;;32.90;77.80;;;31.07;27.68;97314.44;5039677;28;20056;-68
2021/06/16 11:27:02;;;;;;;3.33;1.20;;;33.00;76.00;;;29.76;30.08;97311.59;5037771;28;20048;-69
2021/06/16 11:30:08;;;;;;;7.13;1.30;;;33.10;75.70;;;30.62;29.02;97309.50;5040771;28;20052;-68
2021/06/16 11:33:20;;;;;;;3.22;1.40;;;33.20;75.40;;;32.04;26.68;97306.91;5034490;28;20053;-69
2021/06/16 11:36:14;;;;;;;4.38;1.10;;;33.50;74.70;;;34.29;26.82;97306.75;5035219;28;20041;-68
2021/06/16 11:39:07;;;;;;;2.13;1.10;;;34.60;80.10;;;33.11;25.90;97299.38;5032765;28;20045;-68
2021/06/16 11:41:55;;;;;;;3.78;1.00;;;34.60;74.90;;;32.17;27.42;97293.47;5037805;28;20051;-67
2021/06/16 11:44:43;;;;;;;2.60;1.00;;;34.80;73.90;;;31.86;26.79;97289.59;5028137;28;20060;-69
2021/06/16 11:47:30;;;;;;;4.30;1.52;;;35.00;73.40;;;34.16;26.18;97290.72;5043281;28;20041;-67